Time;durP1;ratioP1;P1;durP2;ratioP2;P2;SDS_P1;SDS_P2;PMS_P1;PMS_P2;Temp;Humidity;BMP_temperature;BMP_pressure;BME280_temperature;BME280_humidity;BME280_pressure;Samples;Min_cycle;Max_cycle;Signal;HPM_P1;HPM_P2
2024/04/23 00:01:28;;;;;;;7.78;3.38;;;;;;;;;;5348395;26;20011;-66
2024/04/23 00:03:53;;;;;;;6.18;3.90;;;;;;;;;;5348042;26;20485;-66
2024/04/23 00:06:18;;;;;;;5.03;3.92;;;;;;;;;;5348022;26;20029;-66
2024/04/23 00:08:44;;;;;;;9.00;4.20;;;;;;;;;;5347986;26;20034;-66
2024/04/23 00:11:09;;;;;;;11.23;4.80;;;;;;;;;;5348573;26;19996;-65
2024/04/23 00:13:34;;;;;;;6.03;3.58;;;;;;;;;;5347195;26;20483;-66
2024/04/23 00:16:00;;;;;;;7.90;4.50;;;;;;;;;;5348429;26;20008;-66
2024/04/23 00:18:25;;;;;;;6.00;3.55;;;;;;;;;;5348167;26;20007;-66
2024/04/23 00:20:51;;;;;;;5.55;2.97;;;;;;;;;;5347734;26;20096;-66
2024/04/23 00:23:16;;;;;;;7.15;3.33;;;;;;;;;;5348327;26;20061;-66
2024/04/23 00:25:42;;;;;;;8.38;4.20;;;;;;;;;;5348387;26;20066;-66
2024/04/23 00:28:07;;;;;;;7.18;3.38;;;;;;;;;;5348053;26;20044;-66
2024/04/23 00:30:33;;;;;;;8.10;3.42;;;;;;;;;;5347152;26;20043;-66
2024/04/23 00:32:58;;;;;;;8.30;3.50;;;;;;;;;;5347697;26;19997;-66
2024/04/23 00:35:24;;;;;;;7.15;3.25;;;;;;;;;;5348129;26;20008;-66
2024/04/23 00:37:49;;;;;;;5.50;3.15;;;;;;;;;;5348000;26;19996;-66
2024/04/23 00:40:14;;;;;;;6.57;3.45;;;;;;;;;;5342744;26;20026;-66
2024/04/23 00:42:40;;;;;;;8.20;3.42;;;;;;;;;;5313587;26;20063;-66
2024/04/23 00:45:06;;;;;;;6.95;3.55;;;;;;;;;;5323099;26;19996;-66
2024/04/23 00:47:32;;;;;;;5.57;3.70;;;;;;;;;;5346159;26;20005;-66
2024/04/23 00:49:57;;;;;;;8.50;3.83;;;;;;;;;;5347802;26;20008;-66
2024/04/23 00:52:23;;;;;;;6.75;3.58;;;;;;;;;;5316850;26;20004;-66
2024/04/23 00:54:49;;;;;;;5.00;3.40;;;;;;;;;;5344258;26;20009;-66
2024/04/23 00:57:15;;;;;;;5.28;3.53;;;;;;;;;;5314693;26;20410;-66
2024/04/23 00:59:40;;;;;;;7.97;3.25;;;;;;;;;;5327007;26;20013;-66
2024/04/23 01:02:05;;;;;;;7.75;3.53;;;;;;;;;;5312390;27;20351;-66
2024/04/23 01:04:31;;;;;;;5.10;3.22;;;;;;;;;;5327074;26;20009;-66
2024/04/23 01:06:56;;;;;;;6.55;3.90;;;;;;;;;;5347734;26;20005;-66
2024/04/23 01:09:21;;;;;;;5.13;3.28;;;;;;;;;;5347798;26;20470;-66
2024/04/23 01:11:47;;;;;;;6.35;3.63;;;;;;;;;;5347187;26;20008;-66
2024/04/23 01:14:12;;;;;;;7.95;3.38;;;;;;;;;;5347643;26;20012;-66
2024/04/23 01:16:40;;;;;;;5.90;3.30;;;;;;;;;;5347658;26;20008;-66
2024/04/23 01:19:09;;;;;;;7.15;3.67;;;;;;;;;;5316755;26;20029;-66
2024/04/23 01:21:43;;;;;;;7.68;4.07;;;;;;;;;;5317248;26;20001;-66
2024/04/23 01:24:15;;;;;;;7.25;3.95;;;;;;;;;;5375321;26;20370;-66
2024/04/23 01:26:41;;;;;;;9.77;4.38;;;;;;;;;;5346953;26;20008;-66
2024/04/23 01:29:06;;;;;;;8.95;4.30;;;;;;;;;;5317288;26;20001;-66
2024/04/23 01:31:32;;;;;;;7.55;3.70;;;;;;;;;;5374937;26;20136;-66
2024/04/23 01:33:58;;;;;;;5.60;3.58;;;;;;;;;;5375120;26;20004;-66
2024/04/23 01:36:23;;;;;;;7.78;3.70;;;;;;;;;;5347482;26;19997;-66
2024/04/23 01:38:49;;;;;;;7.20;4.63;;;;;;;;;;5316446;26;20462;-66
2024/04/23 01:41:15;;;;;;;6.47;3.70;;;;;;;;;;5375017;26;20011;-66
2024/04/23 01:43:40;;;;;;;6.90;3.58;;;;;;;;;;5347354;26;19993;-66
2024/04/23 01:46:06;;;;;;;6.90;3.58;;;;;;;;;;5347334;26;20362;-66
2024/04/23 01:48:31;;;;;;;4.97;3.28;;;;;;;;;;5347354;26;20032;-66
2024/04/23 01:50:57;;;;;;;10.10;3.95;;;;;;;;;;5346648;26;20012;-65
2024/04/23 01:53:22;;;;;;;7.38;3.42;;;;;;;;;;5347231;26;20009;-66
2024/04/23 01:55:49;;;;;;;7.85;3.78;;;;;;;;;;5347165;26;20005;-67
2024/04/23 01:58:14;;;;;;;8.05;3.92;;;;;;;;;;5345859;26;19997;-66
2024/04/23 02:00:40;;;;;;;9.05;3.75;;;;;;;;;;5346886;26;20008;-66
2024/04/23 02:03:05;;;;;;;9.05;3.90;;;;;;;;;;5346474;26;20001;-66
2024/04/23 02:05:31;;;;;;;7.10;3.42;;;;;;;;;;5316657;26;20071;-66
2024/04/23 02:07:56;;;;;;;4.15;2.80;;;;;;;;;;5374333;26;19997;-67
2024/04/23 02:10:22;;;;;;;5.78;3.75;;;;;;;;;;5374509;26;20003;-66
2024/04/23 02:12:47;;;;;;;9.30;4.65;;;;;;;;;;5316009;26;20001;-66
2024/04/23 02:15:12;;;;;;;6.18;3.97;;;;;;;;;;5347296;26;20466;-66
2024/04/23 02:17:38;;;;;;;7.13;3.65;;;;;;;;;;5346803;26;20548;-66
2024/04/23 02:20:04;;;;;;;8.50;3.58;;;;;;;;;;5374272;26;20025;-66
2024/04/23 02:22:30;;;;;;;9.35;3.95;;;;;;;;;;5346751;26;19999;-66
2024/04/23 02:24:55;;;;;;;6.70;3.78;;;;;;;;;;5347094;26;20347;-67
2024/04/23 02:27:20;;;;;;;6.78;3.70;;;;;;;;;;5346131;26;19997;-66
2024/04/23 02:29:45;;;;;;;7.78;3.85;;;;;;;;;;5346590;26;20158;-67
2024/04/23 02:32:11;;;;;;;6.57;3.42;;;;;;;;;;5346588;26;20450;-66
2024/04/23 02:34:36;;;;;;;7.82;4.18;;;;;;;;;;5340027;26;20034;-66
2024/04/23 02:37:01;;;;;;;8.35;4.32;;;;;;;;;;5324560;26;20002;-66
2024/04/23 02:39:26;;;;;;;7.75;4.25;;;;;;;;;;5311578;26;20008;-66
2024/04/23 02:41:53;;;;;;;5.40;3.35;;;;;;;;;;5311837;27;20037;-66
2024/04/23 02:44:18;;;;;;;7.35;4.20;;;;;;;;;;5311448;27;19994;-66
2024/04/23 02:46:44;;;;;;;7.70;3.70;;;;;;;;;;5311227;27;20012;-66
2024/04/23 02:49:09;;;;;;;11.02;3.90;;;;;;;;;;5312247;27;20001;-66
2024/04/23 02:51:34;;;;;;;9.02;4.55;;;;;;;;;;5334626;26;20011;-66
2024/04/23 02:54:00;;;;;;;7.80;3.67;;;;;;;;;;5345909;26;20078;-66
2024/04/23 02:56:25;;;;;;;7.72;3.67;;;;;;;;;;5345199;26;20539;-66
2024/04/23 02:58:51;;;;;;;7.97;4.75;;;;;;;;;;5346105;26;20458;-67
2024/04/23 03:01:16;;;;;;;9.15;4.88;;;;;;;;;;5345099;26;20066;-66
2024/04/23 03:03:42;;;;;;;12.20;5.32;;;;;;;;;;5345973;26;20012;-66
2024/04/23 03:06:07;;;;;;;10.32;4.30;;;;;;;;;;5324804;26;19993;-66
2024/04/23 03:08:32;;;;;;;7.72;4.40;;;;;;;;;;5311328;27;19993;-66
2024/04/23 03:10:57;;;;;;;7.75;4.00;;;;;;;;;;5315173;26;19997;-66
2024/04/23 03:13:23;;;;;;;11.63;5.05;;;;;;;;;;5349478;26;20454;-66
2024/04/23 03:15:48;;;;;;;12.23;5.28;;;;;;;;;;5343140;26;19997;-66
2024/04/23 03:18:13;;;;;;;10.95;4.20;;;;;;;;;;5328450;26;20005;-66
2024/04/23 03:20:39;;;;;;;6.53;3.70;;;;;;;;;;5349245;26;20350;-66
2024/04/23 03:23:04;;;;;;;10.50;5.05;;;;;;;;;;5348910;26;20008;-66
2024/04/23 03:25:29;;;;;;;10.80;4.18;;;;;;;;;;5348820;26;20001;-66
2024/04/23 03:27:54;;;;;;;10.35;4.95;;;;;;;;;;5348098;26;20016;-66
2024/04/23 03:30:20;;;;;;;7.90;4.28;;;;;;;;;;5348856;26;20001;-66
2024/04/23 03:32:45;;;;;;;10.40;4.55;;;;;;;;;;5348802;26;19997;-66
2024/04/23 03:35:10;;;;;;;10.35;4.53;;;;;;;;;;5349080;26;20084;-66
2024/04/23 03:37:36;;;;;;;11.18;5.03;;;;;;;;;;5348153;26;20009;-66
2024/04/23 03:40:01;;;;;;;6.57;3.20;;;;;;;;;;5348992;26;20011;-66
2024/04/23 03:42:26;;;;;;;7.15;4.00;;;;;;;;;;5338368;26;20443;-66
2024/04/23 03:44:52;;;;;;;6.97;4.40;;;;;;;;;;5348660;26;20462;-66
2024/04/23 03:47:17;;;;;;;9.80;4.75;;;;;;;;;;5347863;26;20033;-66
2024/04/23 03:49:43;;;;;;;8.02;4.55;;;;;;;;;;5348919;26;20067;-66
2024/04/23 03:52:08;;;;;;;9.52;4.25;;;;;;;;;;5348909;26;19997;-66
2024/04/23 03:54:34;;;;;;;11.07;5.63;;;;;;;;;;5348781;26;20336;-66
2024/04/23 03:57:00;;;;;;;8.07;4.22;;;;;;;;;;5348795;26;20447;-66
2024/04/23 03:59:25;;;;;;;7.15;4.25;;;;;;;;;;5348251;26;20019;-66
2024/04/23 04:06:03;;;;;;;10.35;4.35;;;;;;;;;;5348809;26;20023;-67
2024/04/23 04:07:22;;;;;;;7.75;5.35;;;;;;;;;;5348641;26;20008;-66
2024/04/23 04:09:48;;;;;;;10.43;4.93;;;;;;;;;;5348732;26;19997;-66
2024/04/23 04:12:13;;;;;;;10.55;4.22;;;;;;;;;;5348568;26;20437;-66
2024/04/23 04:14:38;;;;;;;6.10;3.95;;;;;;;;;;5348480;26;20409;-66
2024/04/23 04:17:04;;;;;;;7.38;4.05;;;;;;;;;;5348419;26;20001;-66
2024/04/23 04:19:30;;;;;;;7.85;4.22;;;;;;;;;;5348204;26;20001;-66
2024/04/23 04:21:58;;;;;;;9.02;4.85;;;;;;;;;;5347384;26;20000;-66
2024/04/23 04:24:23;;;;;;;7.22;4.53;;;;;;;;;;5348295;26;19997;-66
2024/04/23 04:26:48;;;;;;;10.80;4.90;;;;;;;;;;5348273;26;20001;-66
2024/04/23 04:29:14;;;;;;;11.38;5.57;;;;;;;;;;5348039;26;20070;-66
2024/04/23 04:31:39;;;;;;;6.72;4.32;;;;;;;;;;5348238;26;20004;-66
2024/04/23 04:34:04;;;;;;;12.05;5.30;;;;;;;;;;5348399;26;20358;-66
2024/04/23 04:36:30;;;;;;;10.63;5.25;;;;;;;;;;5347718;26;20040;-66
2024/04/23 04:38:55;;;;;;;11.73;4.72;;;;;;;;;;5348347;26;20008;-66
2024/04/23 04:41:20;;;;;;;6.63;4.40;;;;;;;;;;5348187;26;20011;-66
2024/04/23 04:43:45;;;;;;;11.93;5.40;;;;;;;;;;5317517;26;19997;-65
2024/04/23 04:46:11;;;;;;;7.30;4.78;;;;;;;;;;5347844;26;20078;-66
2024/04/23 04:48:36;;;;;;;11.50;5.20;;;;;;;;;;5347955;26;20490;-66
2024/04/23 04:51:02;;;;;;;10.82;4.30;;;;;;;;;;5348015;26;19997;-66
2024/04/23 04:53:27;;;;;;;8.65;4.70;;;;;;;;;;5348010;26;20070;-66
2024/04/23 04:55:52;;;;;;;11.00;5.22;;;;;;;;;;5347920;26;19997;-66
2024/04/23 04:58:18;;;;;;;8.45;5.00;;;;;;;;;;5347458;26;20013;-65
2024/04/23 05:00:43;;;;;;;8.80;4.07;;;;;;;;;;5347741;26;20001;-66
2024/04/23 05:03:08;;;;;;;11.25;4.88;;;;;;;;;;5347944;26;20008;-66
2024/04/23 05:05:33;;;;;;;8.77;4.97;;;;;;;;;;5348123;26;19993;-66
2024/04/23 05:07:59;;;;;;;9.68;4.22;;;;;;;;;;5347879;26;20008;-66
2024/04/23 05:10:24;;;;;;;8.98;3.85;;;;;;;;;;5347643;26;19997;-66
2024/04/23 05:12:49;;;;;;;8.40;4.03;;;;;;;;;;5347106;26;20344;-66
2024/04/23 05:15:16;;;;;;;9.25;4.60;;;;;;;;;;5375242;26;20005;-67
2024/04/23 05:17:41;;;;;;;7.75;4.32;;;;;;;;;;5347591;26;20004;-66
2024/04/23 05:20:09;;;;;;;8.50;4.38;;;;;;;;;;5347612;26;19997;-67
2024/04/23 05:22:34;;;;;;;8.95;4.60;;;;;;;;;;5347003;26;20481;-66
2024/04/23 05:24:59;;;;;;;9.98;4.65;;;;;;;;;;5347546;26;20032;-66
2024/04/23 05:27:25;;;;;;;9.07;4.47;;;;;;;;;;5347390;26;20013;-66
2024/04/23 05:29:54;;;;;;;9.45;4.32;;;;;;;;;;5347575;26;20024;-66
2024/04/23 05:35:06;;;;;;;5.47;3.63;;;;;;;;;;5347090;26;20051;-66
2024/04/23 05:37:31;;;;;;;6.13;3.50;;;;;;;;;;5347317;26;19996;-66
2024/04/23 05:39:56;;;;;;;8.30;3.20;;;;;;;;;;5347275;26;20481;-67
2024/04/23 05:42:21;;;;;;;9.02;4.28;;;;;;;;;;5347413;26;20041;-66
2024/04/23 05:44:47;;;;;;;7.75;4.25;;;;;;;;;;5346504;26;20349;-67
2024/04/23 05:47:12;;;;;;;6.32;3.70;;;;;;;;;;5347171;26;20041;-66
2024/04/23 05:50:15;;;;;;;6.97;3.72;;;;;;;;;;5347237;26;20029;-66
2024/04/23 05:53:18;;;;;;;6.13;3.75;;;;;;;;;;5347129;26;20029;-67
2024/04/23 05:55:43;;;;;;;5.47;2.90;;;;;;;;;;5347038;26;20418;-66
2024/04/23 05:58:08;;;;;;;7.68;3.90;;;;;;;;;;5346331;26;20036;-66
2024/04/23 06:00:35;;;;;;;5.68;3.28;;;;;;;;;;5346980;26;20085;-66
2024/04/23 06:03:01;;;;;;;8.82;3.20;;;;;;;;;;5346947;26;20021;-66
2024/04/23 06:05:26;;;;;;;8.35;3.13;;;;;;;;;;5315895;26;19997;-66
2024/04/23 06:07:52;;;;;;;8.38;3.42;;;;;;;;;;5346768;26;20009;-66
2024/04/23 06:10:18;;;;;;;5.63;3.55;;;;;;;;;;5346853;26;20323;-66
2024/04/23 06:12:44;;;;;;;9.38;4.15;;;;;;;;;;5346921;26;20027;-66
2024/04/23 06:15:09;;;;;;;6.95;4.13;;;;;;;;;;5346912;26;19997;-66
2024/04/23 06:17:35;;;;;;;8.73;3.58;;;;;;;;;;5346634;26;20034;-67
2024/04/23 06:20:05;;;;;;;10.88;4.43;;;;;;;;;;5346075;26;20033;-66
2024/04/23 06:22:31;;;;;;;7.20;3.72;;;;;;;;;;5346649;26;20011;-67
2024/04/23 06:24:57;;;;;;;6.90;3.85;;;;;;;;;;5346534;26;20466;-66
2024/04/23 06:27:24;;;;;;;6.63;3.92;;;;;;;;;;5346415;26;20003;-66
2024/04/23 06:29:53;;;;;;;11.77;4.47;;;;;;;;;;5346464;26;20001;-66
2024/04/23 06:32:19;;;;;;;7.72;3.50;;;;;;;;;;5315486;26;20000;-66
2024/04/23 06:34:46;;;;;;;8.00;4.97;;;;;;;;;;5346317;26;20003;-66
2024/04/23 06:37:12;;;;;;;6.85;4.03;;;;;;;;;;5346312;26;20008;-66
2024/04/23 06:39:38;;;;;;;7.25;3.70;;;;;;;;;;5346328;26;19997;-66
2024/04/23 06:42:03;;;;;;;8.45;4.35;;;;;;;;;;5346207;26;20451;-66
2024/04/23 06:44:28;;;;;;;8.15;4.47;;;;;;;;;;5346039;26;20001;-66
2024/04/23 06:46:53;;;;;;;7.38;3.70;;;;;;;;;;5305481;26;910310;-65
2024/04/23 06:49:19;;;;;;;9.52;3.50;;;;;;;;;;5319302;26;19998;-66
2024/04/23 06:51:45;;;;;;;9.32;4.22;;;;;;;;;;5320200;26;19997;-65
2024/04/23 06:54:10;;;;;;;7.05;3.63;;;;;;;;;;5344746;26;20072;-66
2024/04/23 06:56:35;;;;;;;12.35;3.83;;;;;;;;;;5335614;26;20008;-66
2024/04/23 06:59:01;;;;;;;7.00;3.25;;;;;;;;;;5314281;27;19994;-66
2024/04/23 07:01:26;;;;;;;6.70;4.35;;;;;;;;;;5326805;26;20032;-66
2024/04/23 07:03:51;;;;;;;4.30;2.83;;;;;;;;;;5316625;26;20492;-67
2024/04/23 07:06:16;;;;;;;5.22;3.50;;;;;;;;;;5314193;26;20026;-66
2024/04/23 07:08:42;;;;;;;8.90;3.58;;;;;;;;;;5335992;26;20326;-67
2024/04/23 07:11:07;;;;;;;5.95;3.88;;;;;;;;;;5348422;26;20607;-66
2024/04/23 07:13:32;;;;;;;7.03;3.53;;;;;;;;;;5347706;26;20001;-65
2024/04/23 07:15:58;;;;;;;6.38;3.25;;;;;;;;;;5318366;26;20529;-67
2024/04/23 07:18:23;;;;;;;6.35;3.33;;;;;;;;;;5315977;26;20004;-66
2024/04/23 07:20:50;;;;;;;5.60;3.10;;;;;;;;;;5320073;26;20336;-66
2024/04/23 07:23:16;;;;;;;7.50;3.78;;;;;;;;;;5332451;26;20473;-66
2024/04/23 07:25:48;;;;;;;7.05;3.72;;;;;;;;;;5325196;26;19997;-68
2024/04/23 07:28:13;;;;;;;6.72;3.60;;;;;;;;;;5329860;26;19998;-68
2024/04/23 07:30:40;;;;;;;10.43;3.58;;;;;;;;;;5348521;26;20530;-67
2024/04/23 07:33:05;;;;;;;4.63;2.88;;;;;;;;;;5348149;26;20009;-67
2024/04/23 07:35:31;;;;;;;6.70;2.88;;;;;;;;;;5348552;26;20528;-67
2024/04/23 07:37:56;;;;;;;7.40;3.05;;;;;;;;;;5348065;26;19993;-67
2024/04/23 07:40:21;;;;;;;4.15;2.25;;;;;;;;;;5343729;26;20378;-67
2024/04/23 07:42:47;;;;;;;4.80;2.63;;;;;;;;;;5313301;27;20013;-67
2024/04/23 07:45:12;;;;;;;3.80;2.33;;;;;;;;;;5313502;27;20005;-67
2024/04/23 07:47:38;;;;;;;4.10;1.60;;;;;;;;;;5326670;26;20074;-67
2024/04/23 07:50:03;;;;;;;3.38;1.75;;;;;;;;;;5318899;26;19998;-67
2024/04/23 07:52:28;;;;;;;4.80;1.58;;;;;;;;;;5313657;27;20336;-67
2024/04/23 07:54:54;;;;;;;2.42;1.63;;;;;;;;;;5301356;26;20447;-67
2024/04/23 07:57:19;;;;;;;4.30;1.40;;;;;;;;;;5346623;26;19997;-66
2024/04/23 07:59:45;;;;;;;3.55;1.60;;;;;;;;;;5345977;26;20360;-67
2024/04/23 08:02:11;;;;;;;1.65;1.17;;;;;;;;;;5326710;26;20011;-67
2024/04/23 08:04:36;;;;;;;2.33;1.42;;;;;;;;;;5313406;27;19993;-67
2024/04/23 08:07:02;;;;;;;2.17;1.75;;;;;;;;;;5316509;26;20006;-67
2024/04/23 08:09:27;;;;;;;1.90;1.40;;;;;;;;;;5325480;26;20025;-68
2024/04/23 08:11:52;;;;;;;1.75;1.40;;;;;;;;;;5313141;27;20012;-67
2024/04/23 08:14:18;;;;;;;1.70;1.42;;;;;;;;;;5329884;26;20074;-67
2024/04/23 08:16:43;;;;;;;2.83;1.75;;;;;;;;;;5343918;26;20026;-67
2024/04/23 08:19:08;;;;;;;4.55;1.52;;;;;;;;;;5318773;26;20009;-68
2024/04/23 08:21:36;;;;;;;1.90;1.42;;;;;;;;;;5322968;26;20064;-67
2024/04/23 08:24:02;;;;;;;1.88;1.58;;;;;;;;;;5333702;26;20009;-67
2024/04/23 08:26:28;;;;;;;4.25;1.30;;;;;;;;;;5374839;26;20071;-67
2024/04/23 08:28:54;;;;;;;1.48;1.35;;;;;;;;;;5340826;26;20045;-67
2024/04/23 08:31:20;;;;;;;1.90;1.65;;;;;;;;;;5344872;26;20008;-67
2024/04/23 08:33:45;;;;;;;1.80;1.40;;;;;;;;;;5347385;26;20409;-67
2024/04/23 08:36:10;;;;;;;3.00;1.33;;;;;;;;;;5340614;26;19997;-67
2024/04/23 08:38:35;;;;;;;1.45;1.20;;;;;;;;;;5347430;26;20060;-67
2024/04/23 08:41:01;;;;;;;3.20;1.73;;;;;;;;;;5343312;26;20002;-67
2024/04/23 08:43:32;;;;;;;2.30;1.55;;;;;;;;;;5315943;26;20328;-67
2024/04/23 08:45:59;;;;;;;2.53;1.63;;;;;;;;;;5310747;27;20072;-67
2024/04/23 08:48:27;;;;;;;2.65;2.00;;;;;;;;;;5328389;26;20076;-67
2024/04/23 08:50:52;;;;;;;1.60;1.42;;;;;;;;;;5312932;27;20002;-67
2024/04/23 08:53:18;;;;;;;2.00;1.80;;;;;;;;;;5316861;26;20001;-67
2024/04/23 08:55:44;;;;;;;1.90;1.33;;;;;;;;;;5346915;26;19997;-67
2024/04/23 08:58:11;;;;;;;5.28;1.95;;;;;;;;;;5347254;26;20331;-67
2024/04/23 09:00:39;;;;;;;2.38;1.55;;;;;;;;;;5342173;26;20083;-67
2024/04/23 09:03:06;;;;;;;1.88;1.58;;;;;;;;;;5312952;27;19994;-67
2024/04/23 09:05:32;;;;;;;1.80;1.48;;;;;;;;;;5282559;26;20025;-66
2024/04/23 09:07:58;;;;;;;2.47;1.42;;;;;;;;;;5311040;27;20009;-67
2024/04/23 09:10:23;;;;;;;2.08;1.17;;;;;;;;;;5311701;27;19997;-67
2024/04/23 09:12:48;;;;;;;3.78;1.80;;;;;;;;;;5332071;26;20037;-68
2024/04/23 09:15:14;;;;;;;2.50;1.92;;;;;;;;;;5346827;26;20087;-67
2024/04/23 09:17:55;;;;;;;2.03;1.55;;;;;;;;;;5316603;26;19993;-67
2024/04/23 09:20:24;;;;;;;2.63;1.80;;;;;;;;;;5347403;26;20025;-67
2024/04/23 09:22:51;;;;;;;3.80;2.08;;;;;;;;;;5346203;26;20011;-67
2024/04/23 09:25:16;;;;;;;4.25;2.03;;;;;;;;;;5374768;26;20011;-68
2024/04/23 09:27:41;;;;;;;2.97;2.40;;;;;;;;;;5343104;26;19994;-67
2024/04/23 09:30:08;;;;;;;2.90;1.77;;;;;;;;;;5309984;26;20086;-67
2024/04/23 09:32:33;;;;;;;2.78;1.45;;;;;;;;;;5337666;26;19997;-68
2024/04/23 09:34:58;;;;;;;2.47;1.50;;;;;;;;;;5332688;26;20020;-66
2024/04/23 09:37:24;;;;;;;2.00;1.40;;;;;;;;;;5336261;26;20318;-67
2024/04/23 09:39:49;;;;;;;4.88;1.48;;;;;;;;;;5345798;26;20362;-66
2024/04/23 09:42:24;;;;;;;2.28;1.23;;;;;;;;;;5330494;26;20103;-67
2024/04/23 09:44:50;;;;;;;5.10;1.50;;;;;;;;;;5335944;26;20004;-67
2024/04/23 09:47:16;;;;;;;3.22;1.58;;;;;;;;;;5339170;26;20001;-67
2024/04/23 09:49:45;;;;;;;1.58;1.15;;;;;;;;;;5335955;26;20039;-67
2024/04/23 09:52:11;;;;;;;1.48;1.38;;;;;;;;;;5312048;26;19998;-67
2024/04/23 09:54:43;;;;;;;2.47;1.15;;;;;;;;;;5344913;26;20011;-67
2024/04/23 09:57:09;;;;;;;1.60;1.15;;;;;;;;;;5356265;26;20075;-67
2024/04/23 09:59:34;;;;;;;1.13;1.02;;;;;;;;;;5344681;26;20009;-66
2024/04/23 10:02:01;;;;;;;1.63;1.25;;;;;;;;;;5314555;26;20009;-67
2024/04/23 10:04:27;;;;;;;5.03;1.30;;;;;;;;;;5310298;27;20478;-67
2024/04/23 10:06:54;;;;;;;1.30;1.02;;;;;;;;;;5353127;26;19997;-67
2024/04/23 10:09:27;;;;;;;1.67;0.93;;;;;;;;;;5315660;26;20334;-68
2024/04/23 10:12:05;;;;;;;1.67;1.20;;;;;;;;;;5346471;26;20346;-67
2024/04/23 10:14:59;;;;;;;2.65;1.30;;;;;;;;;;5373878;26;20001;-67
2024/04/23 10:17:36;;;;;;;2.83;1.33;;;;;;;;;;5374094;26;20009;-67
2024/04/23 10:20:02;;;;;;;2.05;1.55;;;;;;;;;;5347187;26;20015;-67
2024/04/23 10:22:30;;;;;;;2.58;1.30;;;;;;;;;;5376638;26;20001;-68
2024/04/23 10:24:56;;;;;;;2.53;1.45;;;;;;;;;;5319204;26;20001;-67
2024/04/23 10:27:23;;;;;;;2.38;1.23;;;;;;;;;;5377183;26;20009;-68
2024/04/23 10:29:50;;;;;;;2.15;1.52;;;;;;;;;;5349866;26;20005;-67
2024/04/23 10:32:19;;;;;;;2.00;1.27;;;;;;;;;;5376643;26;20001;-68
2024/04/23 10:34:47;;;;;;;3.88;1.48;;;;;;;;;;5318970;26;20016;-67
2024/04/23 10:37:13;;;;;;;2.95;1.35;;;;;;;;;;5349546;26;20016;-67
2024/04/23 10:39:39;;;;;;;2.88;1.45;;;;;;;;;;5376914;26;20016;-67
2024/04/23 10:42:06;;;;;;;3.90;1.17;;;;;;;;;;5319279;26;20008;-67
2024/04/23 10:44:32;;;;;;;2.20;1.60;;;;;;;;;;5349012;26;20004;-67
2024/04/23 10:46:57;;;;;;;2.95;1.67;;;;;;;;;;5331314;26;20026;-68
2024/04/23 10:49:25;;;;;;;3.63;1.65;;;;;;;;;;5338134;26;20437;-68
2024/04/23 10:51:51;;;;;;;2.25;1.30;;;;;;;;;;5349514;26;20011;-67
2024/04/23 10:54:20;;;;;;;5.35;1.75;;;;;;;;;;5348704;26;19997;-67
2024/04/23 10:56:58;;;;;;;2.45;1.90;;;;;;;;;;5313015;26;19993;-67
2024/04/23 10:59:29;;;;;;;3.25;1.80;;;;;;;;;;5312915;27;20038;-67
2024/04/23 11:01:59;;;;;;;3.78;1.67;;;;;;;;;;5318495;26;19994;-67
2024/04/23 11:04:29;;;;;;;2.38;1.77;;;;;;;;;;5349626;26;19993;-66
2024/04/23 11:07:01;;;;;;;2.95;1.67;;;;;;;;;;5347777;26;20001;-67
2024/04/23 11:09:27;;;;;;;3.30;1.63;;;;;;;;;;5332663;26;19994;-67
2024/04/23 11:11:55;;;;;;;1.83;1.40;;;;;;;;;;5314195;27;19993;-67
2024/04/23 11:14:36;;;;;;;4.88;1.70;;;;;;;;;;5320381;26;20005;-67
2024/04/23 11:17:02;;;;;;;3.63;1.52;;;;;;;;;;5312367;27;19994;-67
2024/04/23 11:19:41;;;;;;;4.38;2.05;;;;;;;;;;5314151;26;19997;-67
2024/04/23 11:22:09;;;;;;;2.33;1.63;;;;;;;;;;5322710;26;19998;-67
2024/04/23 11:24:42;;;;;;;2.15;1.50;;;;;;;;;;5313054;27;20432;-67
2024/04/23 11:27:07;;;;;;;2.97;1.60;;;;;;;;;;5329203;26;19993;-67
2024/04/23 11:29:32;;;;;;;2.03;1.60;;;;;;;;;;5313863;27;20010;-67
2024/04/23 11:31:58;;;;;;;2.40;1.70;;;;;;;;;;5318281;26;20009;-67
2024/04/23 11:34:24;;;;;;;6.10;2.78;;;;;;;;;;5341160;26;20000;-67
2024/04/23 11:36:50;;;;;;;2.88;1.83;;;;;;;;;;5375855;26;20001;-68
2024/04/23 11:39:25;;;;;;;3.95;2.22;;;;;;;;;;5348738;26;20070;-67
2024/04/23 11:41:51;;;;;;;2.20;1.52;;;;;;;;;;5348691;26;20009;-67
2024/04/23 11:44:19;;;;;;;3.85;1.73;;;;;;;;;;5348323;26;20364;-67
2024/04/23 11:46:49;;;;;;;3.85;1.55;;;;;;;;;;5334233;26;20008;-67
2024/04/23 11:49:16;;;;;;;6.10;1.70;;;;;;;;;;5318563;26;19997;-67
2024/04/23 11:51:42;;;;;;;3.08;1.58;;;;;;;;;;5313552;27;20483;-67
2024/04/23 11:54:07;;;;;;;2.88;1.67;;;;;;;;;;5293869;26;20005;-67
2024/04/23 11:56:33;;;;;;;3.33;1.80;;;;;;;;;;5347725;26;19993;-67
2024/04/23 11:58:59;;;;;;;4.28;1.98;;;;;;;;;;5344793;26;19998;-67
2024/04/23 12:01:25;;;;;;;5.70;1.90;;;;;;;;;;5340321;26;19997;-67
2024/04/23 12:03:50;;;;;;;3.30;1.83;;;;;;;;;;5348007;26;19989;-67
2024/04/23 12:06:16;;;;;;;3.55;1.75;;;;;;;;;;5334187;26;20080;-67
2024/04/23 12:08:41;;;;;;;3.70;2.25;;;;;;;;;;5313793;27;19998;-67
2024/04/23 12:11:07;;;;;;;2.58;1.50;;;;;;;;;;5282733;27;19997;-68
2024/04/23 12:13:32;;;;;;;5.88;2.20;;;;;;;;;;5313967;26;20010;-68
2024/04/23 12:16:01;;;;;;;4.05;1.73;;;;;;;;;;5313380;26;19993;-67
2024/04/23 12:18:26;;;;;;;6.68;2.10;;;;;;;;;;5295122;26;20063;-67
2024/04/23 12:20:52;;;;;;;6.65;2.25;;;;;;;;;;5313075;27;20009;-67
2024/04/23 12:23:17;;;;;;;5.95;2.08;;;;;;;;;;5313503;26;19994;-67
2024/04/23 12:25:43;;;;;;;4.43;2.00;;;;;;;;;;5313818;26;19998;-67
2024/04/23 12:28:10;;;;;;;7.22;2.10;;;;;;;;;;5347261;26;20070;-67
2024/04/23 12:30:35;;;;;;;4.22;2.05;;;;;;;;;;5331848;26;20334;-67
2024/04/23 12:33:07;;;;;;;3.65;2.22;;;;;;;;;;5311185;27;20001;-67
2024/04/23 12:35:33;;;;;;;3.90;1.80;;;;;;;;;;5317884;26;20335;-67
2024/04/23 12:37:58;;;;;;;6.95;2.58;;;;;;;;;;5340980;26;20021;-67
2024/04/23 12:40:24;;;;;;;1.95;1.60;;;;;;;;;;5347287;26;20066;-67
2024/04/23 12:42:49;;;;;;;3.75;1.88;;;;;;;;;;5329020;26;20347;-67
2024/04/23 12:45:14;;;;;;;5.43;1.83;;;;;;;;;;5313360;27;19998;-67
2024/04/23 12:47:39;;;;;;;3.13;1.85;;;;;;;;;;5344558;21;20762;-68
2024/04/23 12:50:05;;;;;;;4.18;2.78;;;;;;;;;;5278970;26;20428;-68
2024/04/23 12:52:30;;;;;;;3.15;2.10;;;;;;;;;;5290184;27;19997;-68
2024/04/23 12:54:55;;;;;;;2.35;1.75;;;;;;;;;;5312872;26;20001;-68
2024/04/23 12:57:21;;;;;;;4.97;1.75;;;;;;;;;;5310694;26;20363;-68
2024/04/23 12:59:47;;;;;;;2.38;1.77;;;;;;;;;;5360895;26;19999;-65
2024/04/23 13:02:13;;;;;;;5.78;2.58;;;;;;;;;;5278442;27;20004;-66
2024/04/23 13:04:38;;;;;;;2.67;1.80;;;;;;;;;;5292968;26;19999;-66
2024/04/23 13:07:04;;;;;;;3.67;2.08;;;;;;;;;;5277967;27;19998;-66
2024/04/23 13:09:29;;;;;;;3.78;1.90;;;;;;;;;;5314747;26;20368;-65
2024/04/23 13:11:54;;;;;;;2.67;1.75;;;;;;;;;;5278183;27;19998;-66
2024/04/23 13:14:20;;;;;;;4.57;2.15;;;;;;;;;;5277590;27;20006;-65
2024/04/23 13:16:46;;;;;;;4.60;2.08;;;;;;;;;;5305120;26;19997;-66
2024/04/23 13:19:12;;;;;;;5.20;2.00;;;;;;;;;;5301678;26;19997;-66
2024/04/23 13:21:37;;;;;;;6.60;2.55;;;;;;;;;;5368343;26;19993;-66
2024/04/23 13:24:03;;;;;;;2.45;1.98;;;;;;;;;;5312461;26;19993;-66
2024/04/23 13:26:28;;;;;;;6.97;2.58;;;;;;;;;;5309484;26;20002;-65
2024/04/23 13:28:53;;;;;;;4.00;2.03;;;;;;;;;;5302215;26;20008;-66
2024/04/23 13:31:18;;;;;;;4.50;1.88;;;;;;;;;;5311443;26;20034;-66
2024/04/23 13:33:44;;;;;;;4.18;2.30;;;;;;;;;;5303075;26;20484;-66
2024/04/23 13:36:12;;;;;;;7.75;2.72;;;;;;;;;;5277789;27;20030;-66
2024/04/23 13:38:40;;;;;;;4.30;2.08;;;;;;;;;;5283001;26;20004;-65
2024/04/23 13:41:05;;;;;;;5.50;2.53;;;;;;;;;;5284461;26;20002;-65
2024/04/23 13:43:30;;;;;;;4.30;2.15;;;;;;;;;;5277547;27;20005;-66
2024/04/23 13:45:55;;;;;;;6.30;2.92;;;;;;;;;;5284393;26;20002;-66
2024/04/23 13:48:21;;;;;;;4.82;2.53;;;;;;;;;;5277731;27;20025;-66
2024/04/23 13:50:46;;;;;;;5.43;3.03;;;;;;;;;;5284607;26;20013;-66
2024/04/23 13:53:11;;;;;;;6.80;2.90;;;;;;;;;;5285077;26;20012;-66
2024/04/23 13:55:38;;;;;;;5.63;2.92;;;;;;;;;;5277144;27;20468;-66
2024/04/23 13:58:04;;;;;;;6.68;4.78;;;;;;;;;;5295270;26;19994;-66
2024/04/23 14:00:29;;;;;;;4.25;3.25;;;;;;;;;;5310962;26;19990;-66
2024/04/23 14:02:54;;;;;;;8.90;3.67;;;;;;;;;;5302350;26;20077;-66
2024/04/23 14:05:21;;;;;;;5.97;2.65;;;;;;;;;;5301801;26;20351;-66
2024/04/23 14:07:47;;;;;;;4.75;2.67;;;;;;;;;;5288482;26;20010;-66
2024/04/23 14:10:12;;;;;;;7.63;3.25;;;;;;;;;;5277409;27;20079;-66
2024/04/23 14:12:38;;;;;;;10.57;5.20;;;;;;;;;;5292492;26;20005;-65
2024/04/23 14:15:07;;;;;;;12.55;3.78;;;;;;;;;;5277223;27;20013;-66
2024/04/23 14:17:32;;;;;;;5.63;3.08;;;;;;;;;;5277818;26;20038;-65
2024/04/23 14:19:57;;;;;;;6.97;3.72;;;;;;;;;;5312045;26;20013;-66
2024/04/23 14:22:23;;;;;;;9.23;3.90;;;;;;;;;;5311031;26;20447;-66
2024/04/23 14:24:48;;;;;;;9.48;2.85;;;;;;;;;;5296515;26;19999;-66
2024/04/23 14:27:13;;;;;;;3.40;2.33;;;;;;;;;;5276072;27;19994;-65
2024/04/23 14:29:40;;;;;;;2.92;2.20;;;;;;;;;;5280240;26;20014;-65
2024/04/23 14:32:07;;;;;;;3.47;2.17;;;;;;;;;;5278031;26;20002;-65
2024/04/23 14:34:33;;;;;;;3.88;1.92;;;;;;;;;;5275618;27;20002;-65
2024/04/23 14:36:58;;;;;;;7.07;2.38;;;;;;;;;;5298571;26;20013;-65
2024/04/23 14:39:23;;;;;;;4.95;2.85;;;;;;;;;;5310571;26;20030;-65
2024/04/23 14:41:49;;;;;;;3.30;2.65;;;;;;;;;;5293746;26;20472;-65